sensor_id;sensor_type;location;lat;lon;timestamp;temperature;humidity
10812;DHT22;5458;51.496;7.334;2022-09-09T00:04:37;17.90;99.90
10812;DHT22;5458;51.496;7.334;2022-09-09T00:07:32;17.90;99.90
10812;DHT22;5458;51.496;7.334;2022-09-09T00:15:14;17.70;99.90
10812;DHT22;5458;51.496;7.334;2022-09-09T00:17:44;17.70;99.90
10812;DHT22;5458;51.496;7.334;2022-09-09T00:23:18;17.60;99.90
10812;DHT22;5458;51.496;7.334;2022-09-09T00:28:20;17.60;99.90
10812;DHT22;5458;51.496;7.334;2022-09-09T00:30:48;17.50;99.90
10812;DHT22;5458;51.496;7.334;2022-09-09T00:33:16;17.60;99.90
10812;DHT22;5458;51.496;7.334;2022-09-09T00:35:52;17.60;99.90
10812;DHT22;5458;51.496;7.334;2022-09-09T00:38:24;17.60;99.90
10812;DHT22;5458;51.496;7.334;2022-09-09T00:41:11;17.60;99.90
10812;DHT22;5458;51.496;7.334;2022-09-09T00:43:40;17.60;99.90
10812;DHT22;5458;51.496;7.334;2022-09-09T00:46:32;17.60;99.90
10812;DHT22;5458;51.496;7.334;2022-09-09T00:56:37;17.60;99.90
10812;DHT22;5458;51.496;7.334;2022-09-09T01:01:36;17.60;99.90
10812;DHT22;5458;51.496;7.334;2022-09-09T01:04:07;17.60;99.90
10812;DHT22;5458;51.496;7.334;2022-09-09T01:06:36;17.60;99.90
10812;DHT22;5458;51.496;7.334;2022-09-09T01:12:15;17.50;99.90
10812;DHT22;5458;51.496;7.334;2022-09-09T01:14:48;17.50;99.90
10812;DHT22;5458;51.496;7.334;2022-09-09T01:17:23;17.50;99.90
10812;DHT22;5458;51.496;7.334;2022-09-09T01:20:07;17.40;99.90
10812;DHT22;5458;51.496;7.334;2022-09-09T01:22:48;17.40;99.90
10812;DHT22;5458;51.496;7.334;2022-09-09T01:26:04;17.40;99.90
10812;DHT22;5458;51.496;7.334;2022-09-09T01:28:34;17.40;99.90
10812;DHT22;5458;51.496;7.334;2022-09-09T01:31:04;17.40;99.90
10812;DHT22;5458;51.496;7.334;2022-09-09T01:33:31;17.40;99.90
10812;DHT22;5458;51.496;7.334;2022-09-09T01:36:08;17.40;99.90
10812;DHT22;5458;51.496;7.334;2022-09-09T01:38:35;17.40;99.90
10812;DHT22;5458;51.496;7.334;2022-09-09T01:41:02;17.40;99.90
10812;DHT22;5458;51.496;7.334;2022-09-09T01:43:28;17.40;99.90
10812;DHT22;5458;51.496;7.334;2022-09-09T01:45:56;17.40;99.90
10812;DHT22;5458;51.496;7.334;2022-09-09T01:48:24;17.40;99.90
10812;DHT22;5458;51.496;7.334;2022-09-09T01:50:51;17.40;99.90
10812;DHT22;5458;51.496;7.334;2022-09-09T01:53:18;17.40;99.90
10812;DHT22;5458;51.496;7.334;2022-09-09T01:56:05;17.40;99.90
10812;DHT22;5458;51.496;7.334;2022-09-09T01:59:00;17.40;99.90
10812;DHT22;5458;51.496;7.334;2022-09-09T02:06:57;17.50;99.90
10812;DHT22;5458;51.496;7.334;2022-09-09T02:09:25;17.50;99.90
10812;DHT22;5458;51.496;7.334;2022-09-09T02:11:57;17.50;99.90
10812;DHT22;5458;51.496;7.334;2022-09-09T02:14:31;17.50;99.90
10812;DHT22;5458;51.496;7.334;2022-09-09T02:17:03;17.50;99.90
10812;DHT22;5458;51.496;7.334;2022-09-09T02:19:34;17.50;99.90
10812;DHT22;5458;51.496;7.334;2022-09-09T02:22:01;17.50;99.90
10812;DHT22;5458;51.496;7.334;2022-09-09T02:24:30;17.50;99.90
10812;DHT22;5458;51.496;7.334;2022-09-09T02:26:57;17.40;99.90
10812;DHT22;5458;51.496;7.334;2022-09-09T02:29:31;17.40;99.90
10812;DHT22;5458;51.496;7.334;2022-09-09T02:32:01;17.30;99.90
10812;DHT22;5458;51.496;7.334;2022-09-09T02:34:31;17.30;99.90
10812;DHT22;5458;51.496;7.334;2022-09-09T02:36:59;17.30;99.90
10812;DHT22;5458;51.496;7.334;2022-09-09T02:39:26;17.30;99.90
10812;DHT22;5458;51.496;7.334;2022-09-09T02:41:52;17.30;99.90
10812;DHT22;5458;51.496;7.334;2022-09-09T02:44:19;17.40;99.90
10812;DHT22;5458;51.496;7.334;2022-09-09T02:47:30;17.30;99.90
10812;DHT22;5458;51.496;7.334;2022-09-09T02:53:01;17.40;99.90
10812;DHT22;5458;51.496;7.334;2022-09-09T02:58:11;17.30;99.90
10812;DHT22;5458;51.496;7.334;2022-09-09T03:00:38;17.30;99.90
10812;DHT22;5458;51.496;7.334;2022-09-09T03:03:05;17.30;99.90
10812;DHT22;5458;51.496;7.334;2022-09-09T03:05:31;17.30;99.90
10812;DHT22;5458;51.496;7.334;2022-09-09T03:07:58;17.30;99.90
10812;DHT22;5458;51.496;7.334;2022-09-09T03:10:23;17.30;99.90
10812;DHT22;5458;51.496;7.334;2022-09-09T03:12:49;17.30;99.90
10812;DHT22;5458;51.496;7.334;2022-09-09T03:15:16;17.30;99.90
10812;DHT22;5458;51.496;7.334;2022-09-09T03:17:42;17.30;99.90
10812;DHT22;5458;51.496;7.334;2022-09-09T03:20:07;17.30;99.90
10812;DHT22;5458;51.496;7.334;2022-09-09T03:22:34;17.20;99.90
10812;DHT22;5458;51.496;7.334;2022-09-09T03:25:00;17.20;99.90
10812;DHT22;5458;51.496;7.334;2022-09-09T03:27:28;17.20;99.90
10812;DHT22;5458;51.496;7.334;2022-09-09T03:29:54;17.20;99.90
10812;DHT22;5458;51.496;7.334;2022-09-09T03:32:19;17.20;99.90
10812;DHT22;5458;51.496;7.334;2022-09-09T03:34:48;17.20;99.90
10812;DHT22;5458;51.496;7.334;2022-09-09T03:37:15;17.20;99.90
10812;DHT22;5458;51.496;7.334;2022-09-09T03:39:41;17.20;99.90
10812;DHT22;5458;51.496;7.334;2022-09-09T03:42:06;17.20;99.90
10812;DHT22;5458;51.496;7.334;2022-09-09T03:44:32;17.10;99.90
10812;DHT22;5458;51.496;7.334;2022-09-09T03:46:58;17.10;99.90
10812;DHT22;5458;51.496;7.334;2022-09-09T03:49:26;17.10;99.90
10812;DHT22;5458;51.496;7.334;2022-09-09T03:51:55;17.10;99.90
10812;DHT22;5458;51.496;7.334;2022-09-09T03:54:22;17.10;99.90
10812;DHT22;5458;51.496;7.334;2022-09-09T03:56:48;17.10;99.90
10812;DHT22;5458;51.496;7.334;2022-09-09T03:59:13;17.10;99.90
10812;DHT22;5458;51.496;7.334;2022-09-09T04:01:39;17.10;99.90
10812;DHT22;5458;51.496;7.334;2022-09-09T04:04:05;17.10;99.90
10812;DHT22;5458;51.496;7.334;2022-09-09T04:06:31;17.10;99.90
10812;DHT22;5458;51.496;7.334;2022-09-09T04:08:56;17.10;99.90
10812;DHT22;5458;51.496;7.334;2022-09-09T04:11:22;17.10;99.90
10812;DHT22;5458;51.496;7.334;2022-09-09T04:13:48;17.10;99.90
10812;DHT22;5458;51.496;7.334;2022-09-09T04:16:15;17.10;99.90
10812;DHT22;5458;51.496;7.334;2022-09-09T04:18:40;17.10;99.90
10812;DHT22;5458;51.496;7.334;2022-09-09T04:21:06;17.00;99.90
10812;DHT22;5458;51.496;7.334;2022-09-09T04:23:33;17.10;99.90
10812;DHT22;5458;51.496;7.334;2022-09-09T04:26:00;17.20;99.90
10812;DHT22;5458;51.496;7.334;2022-09-09T04:28:30;17.20;99.90
10812;DHT22;5458;51.496;7.334;2022-09-09T04:30:56;17.10;99.90
10812;DHT22;5458;51.496;7.334;2022-09-09T04:33:25;17.20;99.90
10812;DHT22;5458;51.496;7.334;2022-09-09T04:35:53;17.20;99.90
10812;DHT22;5458;51.496;7.334;2022-09-09T04:38:19;17.20;99.90
10812;DHT22;5458;51.496;7.334;2022-09-09T04:40:48;17.20;99.90
10812;DHT22;5458;51.496;7.334;2022-09-09T04:43:14;17.20;99.90
10812;DHT22;5458;51.496;7.334;2022-09-09T04:45:43;17.20;99.90
10812;DHT22;5458;51.496;7.334;2022-09-09T04:48:09;17.20;99.90
10812;DHT22;5458;51.496;7.334;2022-09-09T04:50:35;17.20;99.90
10812;DHT22;5458;51.496;7.334;2022-09-09T04:53:01;17.20;99.90
10812;DHT22;5458;51.496;7.334;2022-09-09T04:55:27;17.20;99.90
10812;DHT22;5458;51.496;7.334;2022-09-09T04:57:53;17.20;99.90
10812;DHT22;5458;51.496;7.334;2022-09-09T05:00:20;17.20;99.90
10812;DHT22;5458;51.496;7.334;2022-09-09T05:02:45;17.10;99.90
10812;DHT22;5458;51.496;7.334;2022-09-09T05:05:11;17.20;99.90
10812;DHT22;5458;51.496;7.334;2022-09-09T05:07:37;17.20;99.90
10812;DHT22;5458;51.496;7.334;2022-09-09T05:10:03;17.20;99.90
10812;DHT22;5458;51.496;7.334;2022-09-09T05:12:30;17.20;99.90
10812;DHT22;5458;51.496;7.334;2022-09-09T05:14:56;17.20;99.90
10812;DHT22;5458;51.496;7.334;2022-09-09T05:17:22;17.20;99.90
10812;DHT22;5458;51.496;7.334;2022-09-09T05:19:48;17.20;99.90
10812;DHT22;5458;51.496;7.334;2022-09-09T05:22:19;17.30;99.90
10812;DHT22;5458;51.496;7.334;2022-09-09T05:24:45;17.30;99.90
10812;DHT22;5458;51.496;7.334;2022-09-09T05:27:11;17.30;99.90
10812;DHT22;5458;51.496;7.334;2022-09-09T05:29:38;17.30;99.90
10812;DHT22;5458;51.496;7.334;2022-09-09T05:32:04;17.30;99.90
10812;DHT22;5458;51.496;7.334;2022-09-09T05:34:30;17.30;99.90
10812;DHT22;5458;51.496;7.334;2022-09-09T05:36:55;17.30;99.90
10812;DHT22;5458;51.496;7.334;2022-09-09T05:39:21;17.30;99.90
10812;DHT22;5458;51.496;7.334;2022-09-09T05:41:46;17.40;99.90
10812;DHT22;5458;51.496;7.334;2022-09-09T05:44:12;17.40;99.90
10812;DHT22;5458;51.496;7.334;2022-09-09T05:46:38;17.30;99.90
10812;DHT22;5458;51.496;7.334;2022-09-09T05:49:05;17.40;99.90
10812;DHT22;5458;51.496;7.334;2022-09-09T05:51:31;17.40;99.90
10812;DHT22;5458;51.496;7.334;2022-09-09T05:53:57;17.40;99.90
10812;DHT22;5458;51.496;7.334;2022-09-09T05:56:29;17.40;99.90
10812;DHT22;5458;51.496;7.334;2022-09-09T05:58:56;17.40;99.90
10812;DHT22;5458;51.496;7.334;2022-09-09T06:01:28;17.50;99.90
10812;DHT22;5458;51.496;7.334;2022-09-09T06:03:53;17.50;99.90
10812;DHT22;5458;51.496;7.334;2022-09-09T06:06:22;17.50;99.90
10812;DHT22;5458;51.496;7.334;2022-09-09T06:08:50;17.60;99.90
10812;DHT22;5458;51.496;7.334;2022-09-09T06:11:21;17.60;99.90
10812;DHT22;5458;51.496;7.334;2022-09-09T06:13:47;17.60;99.90
10812;DHT22;5458;51.496;7.334;2022-09-09T06:16:15;17.70;99.90
10812;DHT22;5458;51.496;7.334;2022-09-09T06:18:42;17.70;99.90
10812;DHT22;5458;51.496;7.334;2022-09-09T06:21:34;17.70;99.90
10812;DHT22;5458;51.496;7.334;2022-09-09T06:24:03;17.70;99.90
10812;DHT22;5458;51.496;7.334;2022-09-09T06:26:34;17.70;99.90
10812;DHT22;5458;51.496;7.334;2022-09-09T06:29:00;17.80;99.90
10812;DHT22;5458;51.496;7.334;2022-09-09T06:31:30;17.80;99.90
10812;DHT22;5458;51.496;7.334;2022-09-09T06:33:57;17.80;99.90
10812;DHT22;5458;51.496;7.334;2022-09-09T06:36:27;17.90;99.90
10812;DHT22;5458;51.496;7.334;2022-09-09T06:38:54;18.00;99.90
10812;DHT22;5458;51.496;7.334;2022-09-09T06:41:20;18.00;99.90
10812;DHT22;5458;51.496;7.334;2022-09-09T06:43:47;18.00;99.90
10812;DHT22;5458;51.496;7.334;2022-09-09T06:46:31;18.10;99.90
10812;DHT22;5458;51.496;7.334;2022-09-09T06:48:58;18.10;99.90
10812;DHT22;5458;51.496;7.334;2022-09-09T06:51:34;18.10;99.90
10812;DHT22;5458;51.496;7.334;2022-09-09T06:54:01;18.10;99.90
10812;DHT22;5458;51.496;7.334;2022-09-09T06:56:29;18.10;99.90
10812;DHT22;5458;51.496;7.334;2022-09-09T06:58:57;18.20;99.90
10812;DHT22;5458;51.496;7.334;2022-09-09T07:01:26;18.10;99.90
10812;DHT22;5458;51.496;7.334;2022-09-09T07:03:54;18.20;99.90
10812;DHT22;5458;51.496;7.334;2022-09-09T07:06:26;18.30;99.90
10812;DHT22;5458;51.496;7.334;2022-09-09T07:08:56;18.50;99.90
10812;DHT22;5458;51.496;7.334;2022-09-09T07:11:25;18.60;99.90
10812;DHT22;5458;51.496;7.334;2022-09-09T07:13:57;18.70;99.90
10812;DHT22;5458;51.496;7.334;2022-09-09T07:16:23;18.80;99.90
10812;DHT22;5458;51.496;7.334;2022-09-09T07:18:50;20.00;99.90
10812;DHT22;5458;51.496;7.334;2022-09-09T07:21:16;22.70;99.90
10812;DHT22;5458;51.496;7.334;2022-09-09T07:23:43;24.60;99.90
10812;DHT22;5458;51.496;7.334;2022-09-09T07:26:10;25.40;99.90
10812;DHT22;5458;51.496;7.334;2022-09-09T07:28:36;25.60;99.20
10812;DHT22;5458;51.496;7.334;2022-09-09T07:31:02;25.70;98.00
10812;DHT22;5458;51.496;7.334;2022-09-09T07:33:29;25.80;96.70
10812;DHT22;5458;51.496;7.334;2022-09-09T07:36:16;27.20;95.00
10812;DHT22;5458;51.496;7.334;2022-09-09T07:38:45;29.20;91.20
10812;DHT22;5458;51.496;7.334;2022-09-09T07:41:38;30.30;83.10
10812;DHT22;5458;51.496;7.334;2022-09-09T07:44:13;29.50;82.90
10812;DHT22;5458;51.496;7.334;2022-09-09T07:46:40;29.30;84.80
10812;DHT22;5458;51.496;7.334;2022-09-09T07:49:07;30.70;81.90
10812;DHT22;5458;51.496;7.334;2022-09-09T07:51:35;30.80;76.20
10812;DHT22;5458;51.496;7.334;2022-09-09T07:54:06;29.50;77.60
10812;DHT22;5458;51.496;7.334;2022-09-09T07:56:33;28.20;81.10
10812;DHT22;5458;51.496;7.334;2022-09-09T07:58:59;26.80;85.00
10812;DHT22;5458;51.496;7.334;2022-09-09T08:01:36;25.80;90.30
10812;DHT22;5458;51.496;7.334;2022-09-09T08:04:06;25.50;92.10
10812;DHT22;5458;51.496;7.334;2022-09-09T08:06:38;27.50;90.50
10812;DHT22;5458;51.496;7.334;2022-09-09T08:09:05;28.10;84.60
10812;DHT22;5458;51.496;7.334;2022-09-09T08:11:31;28.40;84.60
10812;DHT22;5458;51.496;7.334;2022-09-09T08:13:58;29.60;80.60
10812;DHT22;5458;51.496;7.334;2022-09-09T08:16:30;31.00;76.70
10812;DHT22;5458;51.496;7.334;2022-09-09T08:18:57;32.20;72.60
10812;DHT22;5458;51.496;7.334;2022-09-09T08:21:25;33.70;66.10
10812;DHT22;5458;51.496;7.334;2022-09-09T08:23:54;34.90;61.50
10812;DHT22;5458;51.496;7.334;2022-09-09T08:26:20;35.70;57.10
10812;DHT22;5458;51.496;7.334;2022-09-09T08:28:48;35.40;54.90
10812;DHT22;5458;51.496;7.334;2022-09-09T08:31:36;33.20;56.70
10812;DHT22;5458;51.496;7.334;2022-09-09T08:34:03;31.40;60.70
10812;DHT22;5458;51.496;7.334;2022-09-09T08:36:31;30.00;64.70
10812;DHT22;5458;51.496;7.334;2022-09-09T08:38:59;29.30;68.40
10812;DHT22;5458;51.496;7.334;2022-09-09T08:44:41;28.40;72.40
10812;DHT22;5458;51.496;7.334;2022-09-09T08:47:39;27.90;70.40
10812;DHT22;5458;51.496;7.334;2022-09-09T08:50:25;27.30;75.00
10812;DHT22;5458;51.496;7.334;2022-09-09T08:55:57;26.30;78.60
10812;DHT22;5458;51.496;7.334;2022-09-09T08:58:33;25.80;79.80
10812;DHT22;5458;51.496;7.334;2022-09-09T09:03:43;25.90;81.20
10812;DHT22;5458;51.496;7.334;2022-09-09T09:09:08;25.80;81.60
10812;DHT22;5458;51.496;7.334;2022-09-09T09:11:53;25.50;83.20
10812;DHT22;5458;51.496;7.334;2022-09-09T09:14:21;25.30;84.70
10812;DHT22;5458;51.496;7.334;2022-09-09T09:17:00;25.10;85.50
10812;DHT22;5458;51.496;7.334;2022-09-09T09:19:28;25.00;86.10
10812;DHT22;5458;51.496;7.334;2022-09-09T09:22:20;24.80;84.10
10812;DHT22;5458;51.496;7.334;2022-09-09T09:30:21;24.30;86.30
10812;DHT22;5458;51.496;7.334;2022-09-09T09:32:55;24.60;88.70
10812;DHT22;5458;51.496;7.334;2022-09-09T09:35:21;24.80;87.10
10812;DHT22;5458;51.496;7.334;2022-09-09T09:37:48;24.80;86.70
10812;DHT22;5458;51.496;7.334;2022-09-09T09:40:16;24.50;85.60
10812;DHT22;5458;51.496;7.334;2022-09-09T09:42:53;24.20;87.00
10812;DHT22;5458;51.496;7.334;2022-09-09T09:48:06;23.70;88.10
10812;DHT22;5458;51.496;7.334;2022-09-09T09:50:33;23.70;87.80
10812;DHT22;5458;51.496;7.334;2022-09-09T09:53:03;23.60;89.00
10812;DHT22;5458;51.496;7.334;2022-09-09T09:55:31;23.50;88.20
10812;DHT22;5458;51.496;7.334;2022-09-09T09:58:05;23.50;89.00
10812;DHT22;5458;51.496;7.334;2022-09-09T10:00:32;23.80;90.30
10812;DHT22;5458;51.496;7.334;2022-09-09T10:03:00;24.00;87.00
10812;DHT22;5458;51.496;7.334;2022-09-09T10:05:30;23.90;88.40
10812;DHT22;5458;51.496;7.334;2022-09-09T10:08:13;23.50;87.00
10812;DHT22;5458;51.496;7.334;2022-09-09T10:16:15;23.30;89.60
10812;DHT22;5458;51.496;7.334;2022-09-09T10:27:01;24.30;85.40
10812;DHT22;5458;51.496;7.334;2022-09-09T10:36:02;23.70;86.80
10812;DHT22;5458;51.496;7.334;2022-09-09T10:38:40;23.80;88.70
10812;DHT22;5458;51.496;7.334;2022-09-09T10:41:34;24.00;89.10
10812;DHT22;5458;51.496;7.334;2022-09-09T10:55:16;24.20;86.20
10812;DHT22;5458;51.496;7.334;2022-09-09T10:57:51;24.10;83.90
10812;DHT22;5458;51.496;7.334;2022-09-09T11:00:20;24.00;81.40
10812;DHT22;5458;51.496;7.334;2022-09-09T11:03:04;23.80;82.30
10812;DHT22;5458;51.496;7.334;2022-09-09T11:05:47;23.80;82.50
10812;DHT22;5458;51.496;7.334;2022-09-09T11:08:23;23.70;81.20
10812;DHT22;5458;51.496;7.334;2022-09-09T11:13:45;23.80;81.60
10812;DHT22;5458;51.496;7.334;2022-09-09T11:19:11;23.70;80.70
10812;DHT22;5458;51.496;7.334;2022-09-09T11:21:47;23.70;82.20
10812;DHT22;5458;51.496;7.334;2022-09-09T11:24:38;23.60;82.60
10812;DHT22;5458;51.496;7.334;2022-09-09T11:27:16;23.70;82.90
10812;DHT22;5458;51.496;7.334;2022-09-09T11:35:33;23.70;82.60
10812;DHT22;5458;51.496;7.334;2022-09-09T11:40:41;23.50;83.20
10812;DHT22;5458;51.496;7.334;2022-09-09T11:43:23;23.60;83.80
10812;DHT22;5458;51.496;7.334;2022-09-09T11:46:01;23.70;84.70
10812;DHT22;5458;51.496;7.334;2022-09-09T11:51:08;23.90;81.20
10812;DHT22;5458;51.496;7.334;2022-09-09T11:53:35;23.90;82.10
10812;DHT22;5458;51.496;7.334;2022-09-09T11:56:11;23.80;81.80
10812;DHT22;5458;51.496;7.334;2022-09-09T11:58:44;23.70;81.90
10812;DHT22;5458;51.496;7.334;2022-09-09T12:04:25;23.60;83.20
10812;DHT22;5458;51.496;7.334;2022-09-09T12:07:03;23.40;83.50
10812;DHT22;5458;51.496;7.334;2022-09-09T12:09:43;23.30;82.80
10812;DHT22;5458;51.496;7.334;2022-09-09T12:19:40;22.80;85.00
10812;DHT22;5458;51.496;7.334;2022-09-09T12:22:40;22.60;89.50
10812;DHT22;5458;51.496;7.334;2022-09-09T12:30:56;21.80;93.70
10812;DHT22;5458;51.496;7.334;2022-09-09T12:33:24;21.90;94.00
10812;DHT22;5458;51.496;7.334;2022-09-09T12:35:59;21.80;94.40
10812;DHT22;5458;51.496;7.334;2022-09-09T12:38:32;21.90;94.60
10812;DHT22;5458;51.496;7.334;2022-09-09T12:40:59;21.60;96.70
10812;DHT22;5458;51.496;7.334;2022-09-09T12:43:27;21.80;98.50
10812;DHT22;5458;51.496;7.334;2022-09-09T12:45:59;22.00;98.80
10812;DHT22;5458;51.496;7.334;2022-09-09T12:48:38;22.20;98.90
10812;DHT22;5458;51.496;7.334;2022-09-09T12:51:17;22.30;98.10
10812;DHT22;5458;51.496;7.334;2022-09-09T12:53:44;22.20;97.60
10812;DHT22;5458;51.496;7.334;2022-09-09T12:56:19;22.20;98.50
10812;DHT22;5458;51.496;7.334;2022-09-09T12:58:47;22.10;98.30
10812;DHT22;5458;51.496;7.334;2022-09-09T13:01:22;22.20;98.30
10812;DHT22;5458;51.496;7.334;2022-09-09T13:03:48;22.00;97.30
10812;DHT22;5458;51.496;7.334;2022-09-09T13:06:22;22.00;97.80
10812;DHT22;5458;51.496;7.334;2022-09-09T13:08:52;21.90;98.50
10812;DHT22;5458;51.496;7.334;2022-09-09T13:11:25;21.90;99.60
10812;DHT22;5458;51.496;7.334;2022-09-09T13:13:56;21.80;99.60
10812;DHT22;5458;51.496;7.334;2022-09-09T13:16:26;21.80;99.90
10812;DHT22;5458;51.496;7.334;2022-09-09T13:18:58;21.90;99.90
10812;DHT22;5458;51.496;7.334;2022-09-09T13:21:36;22.10;99.90
10812;DHT22;5458;51.496;7.334;2022-09-09T13:24:05;22.20;99.40
10812;DHT22;5458;51.496;7.334;2022-09-09T13:26:33;22.30;99.60
10812;DHT22;5458;51.496;7.334;2022-09-09T13:29:18;22.40;99.30
10812;DHT22;5458;51.496;7.334;2022-09-09T13:31:45;22.40;98.30
10812;DHT22;5458;51.496;7.334;2022-09-09T13:34:31;22.30;97.90
10812;DHT22;5458;51.496;7.334;2022-09-09T13:37:05;22.20;98.00
10812;DHT22;5458;51.496;7.334;2022-09-09T13:39:36;22.20;98.60
10812;DHT22;5458;51.496;7.334;2022-09-09T13:42:03;22.20;97.80
10812;DHT22;5458;51.496;7.334;2022-09-09T13:44:31;22.30;98.10
10812;DHT22;5458;51.496;7.334;2022-09-09T13:47:20;22.30;98.10
10812;DHT22;5458;51.496;7.334;2022-09-09T13:49:46;22.30;97.80
10812;DHT22;5458;51.496;7.334;2022-09-09T13:52:14;22.20;97.40
10812;DHT22;5458;51.496;7.334;2022-09-09T13:54:42;22.20;97.80
10812;DHT22;5458;51.496;7.334;2022-09-09T13:57:22;22.20;97.70
10812;DHT22;5458;51.496;7.334;2022-09-09T13:59:48;22.10;97.40
10812;DHT22;5458;51.496;7.334;2022-09-09T14:02:18;21.80;97.60
10812;DHT22;5458;51.496;7.334;2022-09-09T14:04:44;21.60;97.80
10812;DHT22;5458;51.496;7.334;2022-09-09T14:07:14;21.30;98.60
10812;DHT22;5458;51.496;7.334;2022-09-09T14:09:40;21.10;99.60
10812;DHT22;5458;51.496;7.334;2022-09-09T14:12:12;21.00;99.90
10812;DHT22;5458;51.496;7.334;2022-09-09T14:14:39;21.00;99.90
10812;DHT22;5458;51.496;7.334;2022-09-09T14:17:05;20.90;99.90
10812;DHT22;5458;51.496;7.334;2022-09-09T14:19:30;21.00;99.90
10812;DHT22;5458;51.496;7.334;2022-09-09T14:21:57;21.20;99.90
10812;DHT22;5458;51.496;7.334;2022-09-09T14:24:23;21.50;99.90
10812;DHT22;5458;51.496;7.334;2022-09-09T14:26:49;21.60;99.90
10812;DHT22;5458;51.496;7.334;2022-09-09T14:29:14;21.80;99.90
10812;DHT22;5458;51.496;7.334;2022-09-09T14:31:40;21.90;99.90
10812;DHT22;5458;51.496;7.334;2022-09-09T14:34:06;21.90;99.90
10812;DHT22;5458;51.496;7.334;2022-09-09T14:36:31;22.10;99.90
10812;DHT22;5458;51.496;7.334;2022-09-09T14:38:57;22.20;98.60
10812;DHT22;5458;51.496;7.334;2022-09-09T14:41:23;22.20;97.70
10812;DHT22;5458;51.496;7.334;2022-09-09T14:43:50;22.20;97.90
10812;DHT22;5458;51.496;7.334;2022-09-09T14:46:18;22.10;98.00
10812;DHT22;5458;51.496;7.334;2022-09-09T14:48:45;22.10;98.10
10812;DHT22;5458;51.496;7.334;2022-09-09T14:51:24;22.10;98.30
10812;DHT22;5458;51.496;7.334;2022-09-09T14:53:55;22.10;98.70
10812;DHT22;5458;51.496;7.334;2022-09-09T14:56:24;22.10;98.70
10812;DHT22;5458;51.496;7.334;2022-09-09T14:58:50;22.10;99.00
10812;DHT22;5458;51.496;7.334;2022-09-09T15:01:18;22.00;99.30
10812;DHT22;5458;51.496;7.334;2022-09-09T15:03:50;21.90;99.90
10812;DHT22;5458;51.496;7.334;2022-09-09T15:06:16;21.80;99.90
10812;DHT22;5458;51.496;7.334;2022-09-09T15:08:43;21.90;99.90
10812;DHT22;5458;51.496;7.334;2022-09-09T15:11:11;21.70;99.90
10812;DHT22;5458;51.496;7.334;2022-09-09T15:13:39;21.70;99.90
10812;DHT22;5458;51.496;7.334;2022-09-09T15:16:25;21.70;99.90
10812;DHT22;5458;51.496;7.334;2022-09-09T15:18:54;21.80;99.90
10812;DHT22;5458;51.496;7.334;2022-09-09T15:21:23;21.90;99.90
10812;DHT22;5458;51.496;7.334;2022-09-09T15:23:49;21.90;99.90
10812;DHT22;5458;51.496;7.334;2022-09-09T15:26:15;21.90;99.90
10812;DHT22;5458;51.496;7.334;2022-09-09T15:28:42;21.90;99.90
10812;DHT22;5458;51.496;7.334;2022-09-09T15:31:19;21.90;99.90
10812;DHT22;5458;51.496;7.334;2022-09-09T15:34:02;21.80;99.90
10812;DHT22;5458;51.496;7.334;2022-09-09T15:36:33;21.70;99.90
10812;DHT22;5458;51.496;7.334;2022-09-09T15:39:00;21.30;99.90
10812;DHT22;5458;51.496;7.334;2022-09-09T15:41:26;21.00;99.90
10812;DHT22;5458;51.496;7.334;2022-09-09T15:43:53;20.50;99.90
10812;DHT22;5458;51.496;7.334;2022-09-09T15:46:41;20.40;99.90
10812;DHT22;5458;51.496;7.334;2022-09-09T15:49:10;20.30;99.90
10812;DHT22;5458;51.496;7.334;2022-09-09T15:51:37;20.20;99.90
10812;DHT22;5458;51.496;7.334;2022-09-09T15:54:04;20.10;99.90
10812;DHT22;5458;51.496;7.334;2022-09-09T15:56:30;20.10;99.90
10812;DHT22;5458;51.496;7.334;2022-09-09T15:58:57;20.00;99.90
10812;DHT22;5458;51.496;7.334;2022-09-09T16:01:24;20.00;99.90
10812;DHT22;5458;51.496;7.334;2022-09-09T16:03:50;19.80;99.90
10812;DHT22;5458;51.496;7.334;2022-09-09T16:06:18;19.70;99.90
10812;DHT22;5458;51.496;7.334;2022-09-09T16:08:48;19.60;99.90
10812;DHT22;5458;51.496;7.334;2022-09-09T16:11:19;19.60;99.90
10812;DHT22;5458;51.496;7.334;2022-09-09T16:13:47;19.60;99.90
10812;DHT22;5458;51.496;7.334;2022-09-09T16:16:15;19.60;99.90
10812;DHT22;5458;51.496;7.334;2022-09-09T16:18:44;19.60;99.90
10812;DHT22;5458;51.496;7.334;2022-09-09T16:21:24;19.50;99.90
10812;DHT22;5458;51.496;7.334;2022-09-09T16:23:52;19.40;99.90
10812;DHT22;5458;51.496;7.334;2022-09-09T16:26:18;19.40;99.90
10812;DHT22;5458;51.496;7.334;2022-09-09T16:28:44;19.40;99.90
10812;DHT22;5458;51.496;7.334;2022-09-09T16:31:14;19.40;99.90
10812;DHT22;5458;51.496;7.334;2022-09-09T16:33:40;19.30;99.90
10812;DHT22;5458;51.496;7.334;2022-09-09T16:36:08;19.20;99.90
10812;DHT22;5458;51.496;7.334;2022-09-09T16:38:35;19.20;99.90
10812;DHT22;5458;51.496;7.334;2022-09-09T16:41:03;19.10;99.90
10812;DHT22;5458;51.496;7.334;2022-09-09T16:43:30;19.00;99.90
10812;DHT22;5458;51.496;7.334;2022-09-09T16:45:56;19.00;99.90
10812;DHT22;5458;51.496;7.334;2022-09-09T16:48:21;19.10;99.90
10812;DHT22;5458;51.496;7.334;2022-09-09T16:50:47;19.10;99.90
10812;DHT22;5458;51.496;7.334;2022-09-09T16:53:13;19.20;99.90
10812;DHT22;5458;51.496;7.334;2022-09-09T16:55:41;19.10;99.90
10812;DHT22;5458;51.496;7.334;2022-09-09T16:58:10;19.20;99.90
10812;DHT22;5458;51.496;7.334;2022-09-09T17:00:35;19.20;99.90
10812;DHT22;5458;51.496;7.334;2022-09-09T17:03:01;19.20;99.90
10812;DHT22;5458;51.496;7.334;2022-09-09T17:05:28;19.20;99.90
10812;DHT22;5458;51.496;7.334;2022-09-09T17:07:54;19.10;99.90
10812;DHT22;5458;51.496;7.334;2022-09-09T17:10:23;19.10;99.90
10812;DHT22;5458;51.496;7.334;2022-09-09T17:12:49;19.10;99.90
10812;DHT22;5458;51.496;7.334;2022-09-09T17:15:14;19.10;99.90
10812;DHT22;5458;51.496;7.334;2022-09-09T17:17:40;19.10;99.90
10812;DHT22;5458;51.496;7.334;2022-09-09T17:20:09;19.10;99.90
10812;DHT22;5458;51.496;7.334;2022-09-09T17:22:35;19.10;99.90
10812;DHT22;5458;51.496;7.334;2022-09-09T17:25:00;19.10;99.90
10812;DHT22;5458;51.496;7.334;2022-09-09T17:27:26;19.10;99.90
10812;DHT22;5458;51.496;7.334;2022-09-09T17:29:51;19.00;99.90
10812;DHT22;5458;51.496;7.334;2022-09-09T17:32:17;19.00;99.90
10812;DHT22;5458;51.496;7.334;2022-09-09T17:34:43;19.00;99.90
10812;DHT22;5458;51.496;7.334;2022-09-09T17:37:10;19.00;99.90
10812;DHT22;5458;51.496;7.334;2022-09-09T17:39:35;19.00;99.90
10812;DHT22;5458;51.496;7.334;2022-09-09T17:42:01;18.90;99.90
10812;DHT22;5458;51.496;7.334;2022-09-09T17:44:26;18.90;99.90
10812;DHT22;5458;51.496;7.334;2022-09-09T17:46:53;18.90;99.90
10812;DHT22;5458;51.496;7.334;2022-09-09T17:49:21;18.90;99.90
10812;DHT22;5458;51.496;7.334;2022-09-09T17:51:46;18.90;99.90
10812;DHT22;5458;51.496;7.334;2022-09-09T17:54:15;18.90;99.90
10812;DHT22;5458;51.496;7.334;2022-09-09T17:56:42;18.90;99.90
10812;DHT22;5458;51.496;7.334;2022-09-09T17:59:09;18.80;99.90
10812;DHT22;5458;51.496;7.334;2022-09-09T18:01:37;18.70;99.90
10812;DHT22;5458;51.496;7.334;2022-09-09T18:04:05;18.70;99.90
10812;DHT22;5458;51.496;7.334;2022-09-09T18:06:37;18.70;99.90